Fort Meade, MD

10:50 PM EDT on August 23, 2016 (GMT -0400)
Tipton

Weather History for KFME - April, 2013

Change the Weather History Date:

Friday, April 19, 2013

  Actual Average (KBWI) Record (KBWI)
Temperature  
Mean Temperature 64 °F 55 °F  
Max Temperature 78 °F 66 °F 93 °F (1896)
Min Temperature 50 °F 44 °F 24 °F (1875)
Degree Days  
Heating Degree Days 0 11  
Month to date heating degree days 255  
Since 1 July heating degree days 4516  
Cooling Degree Days 0 1  
Month to date cooling degree days 1  
Year to date cooling degree days 2  
Growing Degree Days 14 (Base 50)    
Moisture  
Dew Point 58 °F    
Average Humidity 79    
Maximum Humidity 94    
Minimum Humidity 54    
Precipitation  
Precipitation 0.00 in 0.10 in 1.46 in (1943)
Month to date precipitation 2.05  
Year to date precipitation 11.90  
Snow  
Snow 0.00 in 0.00 in T in (1983)
Month to date snowfall 0.0  
Since 1 July snowfall 20.1  
Snow Depth -    
Sea Level Pressure  
Sea Level Pressure 29.83 in    
Wind  
Wind Speed 6 mph (South)    
Max Wind Speed 20 mph    
Max Gust Speed 30 mph    
Visibility 9 miles    
Events      
T = Trace of Precipitation, MM = Missing Value Source: NWS Daily Summary

Daily Weather History Graph

Daily Weather History Graph

Search for Another Location

Airport or City:

Trip Planner

Search our weather history database for the weather conditions in past years. The results will help you decide how hot, cold, wet, or windy it might be!

Date:

Astronomy

Apr. 19, 2013 Rise Set
Actual Time 6:24 AM EDT 7:48 PM EDT
Civil Twilight 5:56 AM EDT 8:16 PM EDT
Nautical Twilight 5:22 AM EDT 8:50 PM EDT
Astronomical Twilight 4:47 AM EDT 9:25 PM EDT
Moon 1:33 PM EDT (4/19) 2:35 AM EDT (4/19)
Length of Visible Light 14h 20m
Length of Day
13h 24m
First Quarter, 61% of the Moon is Illuminated
Apr 19
First Quarter
Apr 25
Full
May 2
Last Quarter
May 9
New
May 18
First Quarter

Hourly Weather History & Observations

Time (EDT) Temp. Dew Point Humidity Pressure Visibility Wind Dir Wind Speed Gust Speed Precip Events Conditions
12:06 AM 60.8 °F 55.4 °F 82% 30.03 in 10.0 mi SSE 3.5 mph - N/A   Clear
12:24 AM 60.8 °F 55.4 °F 82% 30.03 in 10.0 mi SE 5.8 mph - N/A   Clear
12:45 AM 60.8 °F 55.4 °F 82% 30.03 in 10.0 mi SSE 4.6 mph - N/A   Clear
1:06 AM 60.8 °F 55.4 °F 82% 30.02 in 10.0 mi SSE 3.5 mph - N/A   Clear
1:24 AM 60.8 °F 55.4 °F 82% 30.01 in 10.0 mi SSE 3.5 mph - N/A   Clear
1:45 AM 59.0 °F 55.4 °F 88% 30.00 in 10.0 mi SSE 4.6 mph - N/A   Clear
2:06 AM 59.0 °F 53.6 °F 82% 29.99 in 10.0 mi SE 3.5 mph - N/A   Clear
2:24 AM 59.0 °F 53.6 °F 82% 29.98 in 10.0 mi SSE 3.5 mph - N/A   Clear
2:45 AM 57.2 °F 53.6 °F 88% 29.98 in 10.0 mi SSE 3.5 mph - N/A   Clear
3:06 AM 59.0 °F 53.6 °F 82% 29.97 in 10.0 mi SE 4.6 mph - N/A   Clear
3:24 AM 59.0 °F 55.4 °F 88% 29.96 in 10.0 mi SE 3.5 mph - N/A   Clear
3:45 AM 59.0 °F 53.6 °F 82% 29.95 in 10.0 mi SE 3.5 mph - N/A   Clear
4:06 AM 57.2 °F 53.6 °F 88% 29.95 in 10.0 mi SE 3.5 mph - N/A   Clear
4:24 AM 57.2 °F 53.6 °F 88% 29.94 in 10.0 mi SE 3.5 mph - N/A   Clear
4:45 AM 55.4 °F 53.6 °F 94% 29.94 in 10.0 mi SSE 3.5 mph - N/A   Clear
5:06 AM 55.4 °F 53.6 °F 94% 29.93 in 10.0 mi Calm Calm - N/A   Clear
5:24 AM 55.4 °F 53.6 °F 94% 29.94 in 10.0 mi SSE 3.5 mph - N/A   Mostly Cloudy
5:45 AM 57.2 °F 53.6 °F 88% 29.95 in 10.0 mi South 4.6 mph - N/A   Overcast
6:06 AM 60.8 °F 55.4 °F 82% 29.94 in 10.0 mi SSE 4.6 mph - N/A   Overcast
6:24 AM 60.8 °F 57.2 °F 88% 29.93 in 10.0 mi SSE 4.6 mph - N/A   Overcast
6:45 AM 60.8 °F 57.2 °F 88% 29.93 in 7.0 mi South 3.5 mph - N/A   Overcast
7:06 AM 60.8 °F 59.0 °F 94% 29.93 in 3.0 mi South 4.6 mph - N/A   Overcast
7:24 AM 60.8 °F 59.0 °F 94% 29.93 in 4.0 mi SSE 3.5 mph - N/A   Overcast
7:45 AM 60.8 °F 59.0 °F 94% 29.93 in 3.0 mi SE 3.5 mph - N/A   Overcast
8:06 AM 62.6 °F 59.0 °F 88% 29.93 in 7.0 mi SSE 3.5 mph - N/A   Overcast
8:27 AM 62.6 °F 60.8 °F 94% 29.92 in 10.0 mi SSE 4.6 mph - N/A   Overcast
8:45 AM 64.4 °F 60.8 °F 88% 29.91 in 10.0 mi South 5.8 mph - N/A   Mostly Cloudy
9:06 AM 64.4 °F 60.8 °F 88% 29.91 in 10.0 mi South 5.8 mph - N/A   Mostly Cloudy
9:27 AM 66.2 °F 60.8 °F 83% 29.90 in 10.0 mi South 5.8 mph - N/A   Overcast
9:45 AM 68.0 °F 60.8 °F 78% 29.89 in 10.0 mi SSE 10.4 mph 16.1 mph N/A   Overcast
10:06 AM 66.2 °F 60.8 °F 83% 29.88 in 10.0 mi SSE 8.1 mph - N/A   Overcast
10:27 AM 66.2 °F 60.8 °F 83% 29.88 in 10.0 mi SSE 8.1 mph - N/A   Overcast
10:45 AM 68.0 °F 60.8 °F 78% 29.87 in 10.0 mi South 10.4 mph - N/A   Overcast
11:06 AM 68.0 °F 60.8 °F 78% 29.87 in 10.0 mi South 9.2 mph - N/A   Overcast
11:27 AM 71.6 °F 60.8 °F 69% 29.85 in 10.0 mi South 9.2 mph 18.4 mph N/A   Mostly Cloudy
11:45 AM 71.6 °F 60.8 °F 69% 29.83 in 10.0 mi South 8.1 mph 18.4 mph N/A   Mostly Cloudy
12:06 PM 71.6 °F 60.8 °F 69% 29.82 in 10.0 mi South 10.4 mph 20.7 mph N/A   Overcast
12:27 PM 73.4 °F 60.8 °F 65% 29.81 in 10.0 mi South 15.0 mph 25.3 mph N/A   Overcast
12:45 PM 73.4 °F 60.8 °F 65% 29.81 in 10.0 mi SSW 12.7 mph - N/A   Overcast
1:06 PM 73.4 °F 60.8 °F 65% 29.80 in 10.0 mi South 9.2 mph 24.2 mph N/A   Overcast
1:27 PM 73.4 °F 60.8 °F 65% 29.78 in 10.0 mi SSW 16.1 mph 23.0 mph N/A   Overcast
2:06 PM 73.4 °F 60.8 °F 65% 29.75 in 10.0 mi South 11.5 mph 18.4 mph N/A   Overcast
2:27 PM 77.0 °F 60.8 °F 57% 29.74 in 10.0 mi South 11.5 mph 18.4 mph N/A   Mostly Cloudy
2:45 PM 77.0 °F 60.8 °F 57% 29.72 in 10.0 mi South 15.0 mph 19.6 mph N/A   Scattered Clouds
3:06 PM 77.0 °F 60.8 °F 57% 29.70 in 10.0 mi South 11.5 mph 23.0 mph N/A   Mostly Cloudy
3:27 PM 78.8 °F 60.8 °F 54% 29.68 in 10.0 mi South 15.0 mph 25.3 mph N/A   Mostly Cloudy
3:45 PM 77.0 °F 60.8 °F 57% 29.67 in 10.0 mi South 15.0 mph 24.2 mph N/A   Scattered Clouds
4:06 PM 77.0 °F 60.8 °F 57% 29.67 in 10.0 mi SSW 10.4 mph 21.9 mph N/A   Mostly Cloudy
4:27 PM 77.0 °F 60.8 °F 57% 29.67 in 10.0 mi South 11.5 mph 20.7 mph N/A   Overcast
4:45 PM 77.0 °F 60.8 °F 57% 29.67 in 10.0 mi South 9.2 mph 20.7 mph N/A   Overcast
5:06 PM 77.0 °F 60.8 °F 57% 29.66 in 10.0 mi SSW 11.5 mph 18.4 mph N/A   Overcast
5:27 PM 77.0 °F 60.8 °F 57% 29.65 in 10.0 mi South 12.7 mph 18.4 mph N/A   Overcast
5:48 PM 77.0 °F 60.8 °F 57% 29.65 in 10.0 mi South 10.4 mph 21.9 mph N/A   Overcast
6:06 PM 77.0 °F 60.8 °F 57% 29.64 in 10.0 mi South 13.8 mph 19.6 mph N/A   Overcast
6:27 PM 77.0 °F 60.8 °F 57% 29.63 in 10.0 mi South 10.4 mph 19.6 mph N/A   Overcast
6:48 PM 77.0 °F 60.8 °F 57% 29.62 in 10.0 mi South 10.4 mph 18.4 mph N/A   Overcast
7:06 PM 73.4 °F 60.8 °F 65% 29.62 in 10.0 mi SE 6.9 mph - N/A   Overcast
7:27 PM 69.8 °F 60.8 °F 73% 29.62 in 10.0 mi SE 5.8 mph - N/A   Overcast
7:48 PM 66.2 °F 62.6 °F 88% 29.67 in 0.8 mi SSW 19.6 mph 29.9 mph N/A   Overcast
8:06 PM 64.4 °F 62.6 °F 94% 29.68 in 3.0 mi SW 13.8 mph 27.6 mph N/A   Overcast
8:27 PM 64.4 °F 62.6 °F 94% 29.68 in 5.0 mi SW 8.1 mph 18.4 mph N/A   Overcast
8:48 PM 64.4 °F 62.6 °F 94% 29.71 in 7.0 mi SSW 6.9 mph - N/A   Overcast
9:06 PM 64.4 °F 62.6 °F 94% 29.71 in 5.0 mi SSW 5.8 mph - N/A   Overcast
9:27 PM 64.4 °F 62.6 °F 94% 29.73 in 5.0 mi WSW 8.1 mph - N/A   Overcast
9:48 PM 57.2 °F 53.6 °F 88% 29.77 in 5.0 mi NW 11.5 mph 18.4 mph N/A   Overcast
10:06 PM 55.4 °F 53.6 °F 94% 29.78 in 4.0 mi NW 10.4 mph 18.4 mph N/A   Overcast
10:27 PM 53.6 °F 48.2 °F 82% 29.78 in 4.0 mi WNW 11.5 mph 24.2 mph N/A   Overcast
10:48 PM 51.8 °F 50.0 °F 94% 29.78 in 10.0 mi WNW 3.5 mph - N/A   Overcast
11:06 PM 51.8 °F 50.0 °F 94% 29.78 in 5.0 mi NNW 4.6 mph - N/A   Overcast
11:27 PM 51.8 °F 48.2 °F 88% 29.79 in 2.5 mi NW 6.9 mph - N/A   Overcast
11:48 PM 50.0 °F 46.4 °F 87% 29.79 in 4.0 mi WNW 3.5 mph - N/A   Overcast